Time;durP1;ratioP1;P1;durP2;ratioP2;P2;SDS_P1;SDS_P2;PMS_P1;PMS_P2;Temp;Humidity;BMP_temperature;BMP_pressure;BME280_temperature;BME280_humidity;BME280_pressure;Samples;Min_cycle;Max_cycle;Signal;HPM_P1;HPM_P2
2020/12/27 00:01:14;;;;;;;;;;;5.10;99.90;;;;;;5058018;28;20027;-89
2020/12/27 00:03:48;;;;;;;;;;;5.20;99.90;;;;;;5057778;28;20379;-89
2020/12/27 00:06:17;;;;;;;;;;;5.10;99.90;;;;;;5057912;28;19983;-91
2020/12/27 00:08:44;;;;;;;;;;;5.10;99.90;;;;;;5054974;28;20106;-90
2020/12/27 00:11:15;;;;;;;;;;;5.10;99.90;;;;;;5053724;28;19954;-90
2020/12/27 00:14:14;;;;;;;;;;;5.10;99.90;;;;;;5081207;28;19908;-89
2020/12/27 00:16:43;;;;;;;;;;;5.20;99.90;;;;;;5057397;28;19988;-89
2020/12/27 00:19:47;;;;;;;;;;;5.20;99.90;;;;;;5114476;27;19914;-90
2020/12/27 00:22:54;;;;;;;;;;;5.10;99.90;;;;;;5137514;27;19976;-89
2020/12/27 00:26:01;;;;;;;;;;;5.10;99.90;;;;;;5119154;27;19915;-88
2020/12/27 00:28:33;;;;;;;;;;;5.10;99.90;;;;;;5119516;27;19907;-90
2020/12/27 00:31:02;;;;;;;;;;;5.10;99.90;;;;;;5034745;28;19916;-90
2020/12/27 00:33:28;;;;;;;;;;;5.10;99.90;;;;;;5034233;28;19909;-90
2020/12/27 00:35:56;;;;;;;;;;;5.10;99.90;;;;;;5031752;28;20308;-90
2020/12/27 00:38:23;;;;;;;;;;;5.10;99.90;;;;;;5017388;28;19920;-90
2020/12/27 00:40:52;;;;;;;;;;;5.20;99.90;;;;;;5031399;28;19936;-89
2020/12/27 00:43:21;;;;;;;;;;;5.10;99.90;;;;;;5033944;28;19909;-89
2020/12/27 00:45:53;;;;;;;;;;;5.10;99.90;;;;;;5034015;28;19920;-89
2020/12/27 00:48:22;;;;;;;;;;;5.20;99.90;;;;;;5031727;28;19928;-89
2020/12/27 00:50:53;;;;;;;;;;;5.10;99.90;;;;;;5033991;28;19960;-90
2020/12/27 00:53:40;;;;;;;;;;;5.20;99.90;;;;;;5033694;28;20382;-89
2020/12/27 00:56:11;;;;;;;;;;;5.20;99.90;;;;;;5029283;28;19909;-89
2020/12/27 00:58:42;;;;;;;;;;;5.10;99.90;;;;;;5050677;28;19913;-90
2020/12/27 01:01:11;;;;;;;;;;;5.20;99.90;;;;;;5050397;28;20424;-87
2020/12/27 01:03:40;;;;;;;;;;;5.10;99.90;;;;;;5052846;28;19920;-87
2020/12/27 01:06:06;;;;;;;;;;;5.10;99.90;;;;;;5053383;28;20451;-88
2020/12/27 01:08:37;;;;;;;;;;;5.10;99.90;;;;;;5064333;28;20003;-91
2020/12/27 01:11:23;;;;;;;;;;;5.10;99.90;;;;;;5071867;28;20377;-89
2020/12/27 01:13:52;;;;;;;;;;;5.10;99.90;;;;;;5073276;28;19915;-89
2020/12/27 01:16:24;;;;;;;;;;;5.10;99.90;;;;;;5054189;28;19916;-88
2020/12/27 01:19:00;;;;;;;;;;;5.10;99.90;;;;;;5075172;27;19907;-89
2020/12/27 01:21:35;;;;;;;;;;;5.10;99.90;;;;;;5118140;27;19914;-89
2020/12/27 01:24:03;;;;;;;;;;;5.10;99.90;;;;;;5114909;27;20360;-89
2020/12/27 01:26:32;;;;;;;;;;;5.10;99.90;;;;;;5117674;27;19933;-89
2020/12/27 01:28:58;;;;;;;;;;;5.00;99.90;;;;;;5117512;27;19950;-89
2020/12/27 01:31:24;;;;;;;;;;;5.00;99.90;;;;;;5136122;27;19911;-88
2020/12/27 01:33:56;;;;;;;;;;;5.00;99.90;;;;;;5117996;27;19914;-90
2020/12/27 01:36:41;;;;;;;;;;;5.00;99.90;;;;;;5093744;28;19915;-89
2020/12/27 01:39:13;;;;;;;;;;;5.00;99.90;;;;;;5078908;28;19909;-88
2020/12/27 01:41:44;;;;;;;;;;;5.00;99.90;;;;;;5078636;28;19919;-88
2020/12/27 01:44:14;;;;;;;;;;;5.00;99.90;;;;;;5093258;28;19913;-89
2020/12/27 01:47:00;;;;;;;;;;;5.00;99.90;;;;;;5075664;28;19912;-89
2020/12/27 01:49:32;;;;;;;;;;;4.90;99.90;;;;;;5072431;28;20007;-88
2020/12/27 01:52:06;;;;;;;;;;;5.00;99.90;;;;;;5073845;28;19912;-89
2020/12/27 01:54:33;;;;;;;;;;;5.00;99.90;;;;;;5076331;28;19912;-89
2020/12/27 01:57:00;;;;;;;;;;;4.90;99.90;;;;;;5092953;28;19970;-88
2020/12/27 01:59:28;;;;;;;;;;;5.00;99.90;;;;;;5093530;28;19908;-88
2020/12/27 02:02:09;;;;;;;;;;;5.00;99.90;;;;;;5093010;28;19920;-89
2020/12/27 02:04:38;;;;;;;;;;;4.90;99.90;;;;;;5076191;28;20459;-88
2020/12/27 02:07:12;;;;;;;;;;;4.90;99.90;;;;;;5104677;28;20287;-88
2020/12/27 02:09:44;;;;;;;;;;;4.90;99.90;;;;;;5113588;28;19911;-90
2020/12/27 02:12:11;;;;;;;;;;;5.00;99.90;;;;;;5092491;28;20353;-90
2020/12/27 02:14:49;;;;;;;;;;;4.90;99.90;;;;;;5072623;28;19908;-88
2020/12/27 02:17:27;;;;;;;;;;;4.90;99.90;;;;;;5093088;28;19908;-90
2020/12/27 02:19:56;;;;;;;;;;;4.90;99.90;;;;;;5073472;28;19908;-91
2020/12/27 02:22:31;;;;;;;;;;;4.90;99.90;;;;;;5075525;28;19969;-89
2020/12/27 02:24:59;;;;;;;;;;;4.90;99.90;;;;;;5090528;28;20033;-89
2020/12/27 02:27:30;;;;;;;;;;;4.90;99.90;;;;;;5072981;28;19924;-88
2020/12/27 02:30:17;;;;;;;;;;;4.90;99.90;;;;;;5092662;28;19912;-89
2020/12/27 02:32:45;;;;;;;;;;;4.90;99.90;;;;;;5076224;28;19908;-89
2020/12/27 02:35:23;;;;;;;;;;;4.90;99.90;;;;;;5075597;28;19909;-88
2020/12/27 02:37:55;;;;;;;;;;;4.90;99.90;;;;;;5074235;28;20010;-89
2020/12/27 02:40:24;;;;;;;;;;;4.90;99.90;;;;;;5051531;28;19916;-89
2020/12/27 02:42:54;;;;;;;;;;;4.90;99.90;;;;;;5063442;28;20022;-90
2020/12/27 02:45:48;;;;;;;;;;;4.90;99.90;;;;;;5076169;28;19923;-90
2020/12/27 02:48:17;;;;;;;;;;;4.90;99.90;;;;;;5071026;28;19909;-88
2020/12/27 02:50:49;;;;;;;;;;;4.90;99.90;;;;;;5075587;28;19916;-89
2020/12/27 02:53:24;;;;;;;;;;;4.90;99.90;;;;;;5072280;28;19937;-89
2020/12/27 02:56:02;;;;;;;;;;;4.90;99.90;;;;;;5076694;28;19998;-89
2020/12/27 02:58:30;;;;;;;;;;;4.90;99.90;;;;;;5076739;28;20011;-91
2020/12/27 03:01:07;;;;;;;;;;;4.90;99.90;;;;;;5075867;28;19919;-90
2020/12/27 03:03:39;;;;;;;;;;;5.00;99.90;;;;;;5075958;28;20054;-90
2020/12/27 03:06:09;;;;;;;;;;;4.90;99.90;;;;;;5076707;28;19924;-91
2020/12/27 03:08:38;;;;;;;;;;;4.90;99.90;;;;;;5076324;28;19975;-88
2020/12/27 03:11:10;;;;;;;;;;;5.00;99.90;;;;;;5082384;27;19915;-89
2020/12/27 03:13:45;;;;;;;;;;;4.90;99.90;;;;;;5113004;27;20002;-88
2020/12/27 03:16:15;;;;;;;;;;;4.90;99.90;;;;;;5120505;27;20271;-88
2020/12/27 03:18:43;;;;;;;;;;;4.90;99.90;;;;;;5120570;27;20002;-89
2020/12/27 03:21:13;;;;;;;;;;;4.90;99.90;;;;;;5120162;27;19907;-88
2020/12/27 03:23:45;;;;;;;;;;;4.90;99.90;;;;;;5118035;27;19916;-90
2020/12/27 03:26:13;;;;;;;;;;;4.90;99.90;;;;;;5120571;27;19962;-88
2020/12/27 03:28:42;;;;;;;;;;;4.90;99.90;;;;;;5114098;27;20392;-89
2020/12/27 03:31:29;;;;;;;;;;;4.90;99.90;;;;;;5138826;27;19915;-90
2020/12/27 03:34:00;;;;;;;;;;;4.90;99.90;;;;;;5120456;27;19911;-90
2020/12/27 03:36:49;;;;;;;;;;;4.90;99.90;;;;;;5136763;27;19954;-91
2020/12/27 03:39:17;;;;;;;;;;;4.90;99.90;;;;;;5116816;27;19971;-90
2020/12/27 03:41:46;;;;;;;;;;;4.90;99.90;;;;;;5115146;27;19994;-90
2020/12/27 03:44:17;;;;;;;;;;;4.90;99.90;;;;;;5113435;27;19916;-90
2020/12/27 03:46:48;;;;;;;;;;;4.90;99.90;;;;;;5114720;27;19908;-89
2020/12/27 03:49:16;;;;;;;;;;;4.90;99.90;;;;;;5112584;27;19907;-90
2020/12/27 03:51:48;;;;;;;;;;;4.90;99.90;;;;;;5018281;28;19916;-88
2020/12/27 03:54:20;;;;;;;;;;;4.80;99.90;;;;;;5035410;28;19988;-89
2020/12/27 03:57:06;;;;;;;;;;;4.80;99.90;;;;;;5016342;28;19913;-89
2020/12/27 03:59:34;;;;;;;;;;;4.80;99.90;;;;;;5018959;28;19909;-91
2020/12/27 04:02:07;;;;;;;;;;;4.80;99.90;;;;;;4937675;29;20393;-90
2020/12/27 04:04:35;;;;;;;;;;;4.80;99.90;;;;;;4935378;29;19926;-90
2020/12/27 04:07:04;;;;;;;;;;;4.80;99.90;;;;;;4934979;29;19914;-89
2020/12/27 04:09:32;;;;;;;;;;;4.80;99.90;;;;;;4935338;29;19911;-90
2020/12/27 04:12:03;;;;;;;;;;;4.80;99.90;;;;;;4937123;29;19953;-89
2020/12/27 04:14:34;;;;;;;;;;;4.80;99.90;;;;;;4934541;29;19911;-91
2020/12/27 04:17:06;;;;;;;;;;;4.80;99.90;;;;;;4937401;29;20391;-91
2020/12/27 04:19:37;;;;;;;;;;;4.90;99.90;;;;;;4937458;29;19918;-91
2020/12/27 04:22:06;;;;;;;;;;;4.90;99.90;;;;;;4954342;28;19910;-91
2020/12/27 04:24:32;;;;;;;;;;;4.90;99.90;;;;;;4998076;28;19960;-91
2020/12/27 04:27:00;;;;;;;;;;;4.90;99.90;;;;;;4998440;28;19913;-90
2020/12/27 04:29:27;;;;;;;;;;;4.90;99.90;;;;;;5014066;28;19916;-91
2020/12/27 04:31:53;;;;;;;;;;;4.90;99.90;;;;;;5005198;28;20049;-90
2020/12/27 04:34:29;;;;;;;;;;;4.90;99.90;;;;;;5098703;28;19912;-89
2020/12/27 04:36:58;;;;;;;;;;;5.00;99.90;;;;;;5098492;28;19961;-89
2020/12/27 04:39:31;;;;;;;;;;;5.00;99.90;;;;;;5116247;28;19908;-89
2020/12/27 04:42:08;;;;;;;;;;;5.00;99.90;;;;;;5097613;28;19908;-89
2020/12/27 04:44:34;;;;;;;;;;;5.10;99.90;;;;;;5097864;28;19923;-90
2020/12/27 04:47:14;;;;;;;;;;;5.10;99.90;;;;;;5116557;28;20349;-90
2020/12/27 04:49:43;;;;;;;;;;;5.10;99.90;;;;;;5098775;28;20390;-91
2020/12/27 04:52:15;;;;;;;;;;;5.10;99.90;;;;;;5097553;28;19912;-90
2020/12/27 04:54:43;;;;;;;;;;;5.20;99.90;;;;;;5097323;28;19947;-90
2020/12/27 04:57:12;;;;;;;;;;;5.20;99.90;;;;;;5103966;28;20006;-90
2020/12/27 04:59:44;;;;;;;;;;;5.20;99.90;;;;;;5122743;28;19915;-89
2020/12/27 05:02:16;;;;;;;;;;;5.30;99.90;;;;;;5111235;28;19927;-90
2020/12/27 05:04:47;;;;;;;;;;;5.20;99.90;;;;;;5116136;28;20364;-90
2020/12/27 05:07:28;;;;;;;;;;;5.20;99.90;;;;;;5094262;28;19912;-89
2020/12/27 05:09:59;;;;;;;;;;;5.20;99.90;;;;;;5116833;28;20061;-90
2020/12/27 05:12:25;;;;;;;;;;;5.20;99.90;;;;;;5115482;28;20344;-88
2020/12/27 05:14:56;;;;;;;;;;;5.20;99.90;;;;;;5108511;28;19956;-94
2020/12/27 05:17:25;;;;;;;;;;;5.10;99.90;;;;;;5112630;28;19919;-90
2020/12/27 05:19:56;;;;;;;;;;;5.10;99.90;;;;;;5114719;28;20002;-89
2020/12/27 05:22:23;;;;;;;;;;;5.00;99.90;;;;;;5116209;28;19914;-90
2020/12/27 05:24:52;;;;;;;;;;;5.00;99.90;;;;;;5116127;28;19955;-90
2020/12/27 05:27:18;;;;;;;;;;;5.00;99.90;;;;;;5114484;28;19943;-90
2020/12/27 05:29:52;;;;;;;;;;;5.00;99.90;;;;;;5114911;28;19919;-90
2020/12/27 05:32:27;;;;;;;;;;;4.90;99.90;;;;;;5112200;28;19954;-91
2020/12/27 05:34:59;;;;;;;;;;;4.90;99.90;;;;;;5114722;28;19908;-89
2020/12/27 05:37:28;;;;;;;;;;;4.80;99.90;;;;;;5115768;28;20360;-89
2020/12/27 05:40:02;;;;;;;;;;;4.80;99.90;;;;;;5116042;28;19962;-89
2020/12/27 05:42:31;;;;;;;;;;;4.80;99.90;;;;;;5114705;28;19911;-88
2020/12/27 05:45:03;;;;;;;;;;;4.80;99.90;;;;;;5114891;28;19922;-90
2020/12/27 05:47:37;;;;;;;;;;;4.70;99.90;;;;;;5112372;28;19912;-88
2020/12/27 05:50:07;;;;;;;;;;;4.70;99.90;;;;;;5110280;28;19908;-89
2020/12/27 05:52:50;;;;;;;;;;;4.70;99.90;;;;;;5114606;28;20026;-88
2020/12/27 05:55:29;;;;;;;;;;;4.70;99.90;;;;;;5114093;28;19998;-89
2020/12/27 05:58:03;;;;;;;;;;;4.70;99.90;;;;;;5095925;28;19916;-90
2020/12/27 06:00:32;;;;;;;;;;;4.70;99.90;;;;;;5108872;28;19955;-89
2020/12/27 06:02:59;;;;;;;;;;;4.60;99.90;;;;;;5113297;28;19927;-90
2020/12/27 06:05:55;;;;;;;;;;;4.60;99.90;;;;;;5096811;28;19967;-90
2020/12/27 06:08:27;;;;;;;;;;;4.60;99.90;;;;;;5114355;28;19956;-90
2020/12/27 06:11:19;;;;;;;;;;;4.60;99.90;;;;;;5114088;28;19908;-89
2020/12/27 06:13:57;;;;;;;;;;;4.60;99.90;;;;;;5108539;28;19961;-89
2020/12/27 06:16:41;;;;;;;;;;;4.60;99.90;;;;;;5117539;28;20360;-89
2020/12/27 06:19:19;;;;;;;;;;;4.70;99.90;;;;;;5114673;28;20345;-89
2020/12/27 06:21:54;;;;;;;;;;;4.70;99.90;;;;;;5117783;28;19911;-87
2020/12/27 06:24:25;;;;;;;;;;;4.70;99.90;;;;;;5117678;28;20006;-89
2020/12/27 06:26:50;;;;;;;;;;;4.70;99.90;;;;;;5117617;28;19954;-87
2020/12/27 06:29:18;;;;;;;;;;;4.70;99.90;;;;;;5117550;28;19946;-88
2020/12/27 06:31:50;;;;;;;;;;;4.70;99.90;;;;;;5112199;28;20077;-88
2020/12/27 06:34:22;;;;;;;;;;;4.70;99.90;;;;;;5112199;28;19907;-89
2020/12/27 06:37:07;;;;;;;;;;;4.70;99.90;;;;;;5118139;28;19957;-88
2020/12/27 06:39:36;;;;;;;;;;;4.70;99.90;;;;;;5113652;28;19956;-88
2020/12/27 06:42:10;;;;;;;;;;;4.70;99.90;;;;;;5117611;28;19914;-89
2020/12/27 06:44:56;;;;;;;;;;;4.70;99.90;;;;;;5117335;28;19919;-90
2020/12/27 06:47:47;;;;;;;;;;;4.70;99.90;;;;;;5118226;28;19911;-90
2020/12/27 06:50:35;;;;;;;;;;;4.70;99.90;;;;;;5117305;28;19915;-90
2020/12/27 06:53:09;;;;;;;;;;;4.70;99.90;;;;;;5114957;28;19908;-90
2020/12/27 06:55:54;;;;;;;;;;;4.70;99.90;;;;;;5116971;28;19981;-90
2020/12/27 06:58:26;;;;;;;;;;;4.70;99.90;;;;;;5114065;28;19908;-89
2020/12/27 07:01:08;;;;;;;;;;;4.70;99.90;;;;;;5118689;27;19930;-90
2020/12/27 07:03:37;;;;;;;;;;;4.70;99.90;;;;;;5120151;27;19911;-90
2020/12/27 07:06:18;;;;;;;;;;;4.80;99.90;;;;;;5098099;28;19908;-89
2020/12/27 07:08:52;;;;;;;;;;;4.80;99.90;;;;;;5099295;28;19912;-90
2020/12/27 07:11:22;;;;;;;;;;;4.80;99.90;;;;;;5093402;28;19955;-90
2020/12/27 07:13:57;;;;;;;;;;;4.80;99.90;;;;;;5079097;28;19957;-89
2020/12/27 07:16:49;;;;;;;;;;;4.80;99.90;;;;;;5079329;28;19931;-89
2020/12/27 07:19:15;;;;;;;;;;;4.80;99.90;;;;;;5072602;28;19962;-88
2020/12/27 07:21:50;;;;;;;;;;;4.80;99.90;;;;;;5076153;28;20014;-89
2020/12/27 07:24:27;;;;;;;;;;;4.90;99.90;;;;;;5079349;28;19955;-89
2020/12/27 07:27:01;;;;;;;;;;;4.90;99.90;;;;;;5078427;28;20388;-90
2020/12/27 07:29:32;;;;;;;;;;;4.90;99.90;;;;;;5095883;28;19908;-90
2020/12/27 07:32:04;;;;;;;;;;;4.90;99.90;;;;;;5078746;28;19947;-90
2020/12/27 07:34:32;;;;;;;;;;;4.90;99.90;;;;;;5078845;28;20454;-89
2020/12/27 07:37:07;;;;;;;;;;;4.90;99.90;;;;;;5097978;27;19907;-89
2020/12/27 07:40:03;;;;;;;;;;;4.90;99.90;;;;;;5116110;27;20356;-91
2020/12/27 07:42:41;;;;;;;;;;;4.90;99.90;;;;;;5138295;27;19915;-90
2020/12/27 07:45:13;;;;;;;;;;;4.90;99.90;;;;;;5117789;27;20375;-90
2020/12/27 07:47:51;;;;;;;;;;;5.00;99.90;;;;;;5138218;27;19942;-90
2020/12/27 07:50:18;;;;;;;;;;;5.00;99.90;;;;;;5119761;27;20276;-90
2020/12/27 07:52:55;;;;;;;;;;;5.00;99.90;;;;;;5138368;27;19915;-90
2020/12/27 07:55:31;;;;;;;;;;;5.00;99.90;;;;;;5138229;27;19987;-92
2020/12/27 07:58:01;;;;;;;;;;;5.00;99.90;;;;;;5114708;27;20010;-91
2020/12/27 08:00:35;;;;;;;;;;;5.00;99.90;;;;;;5120258;27;19914;-91
2020/12/27 08:03:31;;;;;;;;;;;5.10;99.90;;;;;;5112889;28;19978;-91
2020/12/27 08:06:24;;;;;;;;;;;5.00;99.90;;;;;;5113959;28;20061;-91
2020/12/27 08:09:11;;;;;;;;;;;5.10;99.90;;;;;;5113801;28;19916;-90
2020/12/27 08:11:42;;;;;;;;;;;5.10;99.90;;;;;;5098343;28;19939;-89
2020/12/27 08:14:14;;;;;;;;;;;5.10;99.90;;;;;;5071044;28;19912;-91
2020/12/27 08:16:40;;;;;;;;;;;5.10;99.90;;;;;;5066719;28;19962;-89
2020/12/27 08:19:20;;;;;;;;;;;5.10;99.90;;;;;;5072810;28;19920;-89
2020/12/27 08:21:47;;;;;;;;;;;5.10;99.90;;;;;;5037397;28;19908;-90
2020/12/27 08:24:21;;;;;;;;;;;5.20;99.90;;;;;;5057536;28;20382;-93
2020/12/27 08:26:48;;;;;;;;;;;5.20;99.90;;;;;;5058089;28;20070;-90
2020/12/27 08:29:16;;;;;;;;;;;5.30;99.90;;;;;;5057826;28;20005;-91
2020/12/27 08:31:46;;;;;;;;;;;5.30;99.90;;;;;;5057797;28;20042;-91
2020/12/27 08:34:24;;;;;;;;;;;5.40;99.90;;;;;;5057272;28;19909;-90
2020/12/27 08:36:54;;;;;;;;;;;5.40;99.90;;;;;;5080248;28;19908;-91
2020/12/27 08:39:35;;;;;;;;;;;5.50;99.90;;;;;;5053797;28;19913;-90
2020/12/27 08:42:13;;;;;;;;;;;5.50;99.90;;;;;;5054530;28;20336;-90
2020/12/27 08:44:48;;;;;;;;;;;5.50;99.90;;;;;;5060190;28;20034;-89
2020/12/27 08:47:35;;;;;;;;;;;5.60;99.90;;;;;;5056934;28;20365;-90
2020/12/27 08:50:12;;;;;;;;;;;5.60;99.90;;;;;;5056493;28;19959;-88
2020/12/27 08:52:40;;;;;;;;;;;5.60;99.90;;;;;;5036792;28;19909;-89
2020/12/27 08:55:23;;;;;;;;;;;5.60;99.90;;;;;;5051970;28;19909;-92
2020/12/27 08:57:52;;;;;;;;;;;5.70;99.90;;;;;;5038239;28;20021;-89
2020/12/27 09:00:35;;;;;;;;;;;5.60;99.90;;;;;;5051617;28;20361;-89
2020/12/27 09:03:07;;;;;;;;;;;5.60;99.90;;;;;;5051949;28;20559;-89
2020/12/27 09:05:47;;;;;;;;;;;5.60;99.90;;;;;;5057177;28;19928;-89
2020/12/27 09:08:20;;;;;;;;;;;5.50;99.90;;;;;;5057223;28;19917;-89
2020/12/27 09:10:50;;;;;;;;;;;5.50;99.90;;;;;;5052674;28;19955;-88
2020/12/27 09:13:41;;;;;;;;;;;5.50;99.90;;;;;;5046207;28;19919;-88
2020/12/27 09:16:10;;;;;;;;;;;5.40;99.90;;;;;;5030405;28;19912;-88
2020/12/27 09:18:39;;;;;;;;;;;5.40;99.90;;;;;;5032504;28;19913;-90
2020/12/27 09:21:09;;;;;;;;;;;5.40;99.90;;;;;;5036339;28;20354;-91
2020/12/27 09:23:48;;;;;;;;;;;5.30;99.90;;;;;;5035201;28;19963;-89
2020/12/27 09:26:19;;;;;;;;;;;5.30;99.90;;;;;;5070647;28;19912;-89
2020/12/27 09:28:49;;;;;;;;;;;5.30;99.90;;;;;;5072467;28;19912;-89
2020/12/27 09:31:33;;;;;;;;;;;5.40;99.90;;;;;;5052137;28;19967;-91
2020/12/27 09:34:01;;;;;;;;;;;5.30;99.90;;;;;;5072893;28;19970;-88
2020/12/27 09:36:27;;;;;;;;;;;5.30;99.90;;;;;;5072648;28;19955;-88
2020/12/27 09:38:55;;;;;;;;;;;5.30;99.90;;;;;;5072251;28;19915;-91
2020/12/27 09:41:35;;;;;;;;;;;5.40;99.90;;;;;;5070657;28;19952;-89
2020/12/27 09:44:05;;;;;;;;;;;5.40;99.90;;;;;;5053298;28;20266;-90
2020/12/27 09:46:51;;;;;;;;;;;5.40;99.90;;;;;;5073221;28;19951;-89
2020/12/27 09:49:21;;;;;;;;;;;5.40;99.90;;;;;;5060454;28;19912;-88
2020/12/27 09:52:02;;;;;;;;;;;5.40;99.90;;;;;;5062829;28;19923;-89
2020/12/27 09:54:30;;;;;;;;;;;5.40;99.90;;;;;;5089118;28;19915;-89
2020/12/27 09:56:56;;;;;;;;;;;5.40;99.90;;;;;;5121388;28;19937;-88
2020/12/27 09:59:21;;;;;;;;;;;5.40;99.90;;;;;;5113621;28;20355;-89
2020/12/27 10:01:53;;;;;;;;;;;5.40;99.90;;;;;;5120600;28;19920;-87
2020/12/27 10:04:31;;;;;;;;;;;5.50;99.90;;;;;;5116157;28;19922;-89
2020/12/27 10:07:17;;;;;;;;;;;5.40;99.90;;;;;;5122500;28;19908;-88
2020/12/27 10:09:46;;;;;;;;;;;5.40;99.90;;;;;;5123465;28;19908;-89
2020/12/27 10:12:18;;;;;;;;;;;5.40;99.90;;;;;;5115019;28;19915;-91
2020/12/27 10:14:50;;;;;;;;;;;5.40;99.90;;;;;;5134432;27;20405;-89
2020/12/27 10:17:19;;;;;;;;;;;5.40;99.90;;;;;;5141998;27;19981;-89
2020/12/27 10:19:58;;;;;;;;;;;5.40;99.90;;;;;;5143506;27;19918;-89
2020/12/27 10:22:27;;;;;;;;;;;5.40;99.90;;;;;;5142066;27;20363;-90
2020/12/27 10:24:53;;;;;;;;;;;5.40;99.90;;;;;;5141456;27;19965;-88
2020/12/27 10:27:25;;;;;;;;;;;5.40;99.90;;;;;;5135306;27;19918;-89
2020/12/27 10:30:11;;;;;;;;;;;5.40;99.90;;;;;;5139762;27;19907;-90
2020/12/27 10:33:00;;;;;;;;;;;5.40;99.90;;;;;;5142145;27;19914;-93
2020/12/27 10:35:31;;;;;;;;;;;5.40;99.90;;;;;;5142325;27;19907;-92
2020/12/27 10:38:00;;;;;;;;;;;5.40;99.90;;;;;;5140228;27;19957;-89
2020/12/27 10:40:46;;;;;;;;;;;5.40;99.90;;;;;;5101130;28;19908;-91
2020/12/27 10:43:18;;;;;;;;;;;5.40;99.90;;;;;;5077020;28;19908;-89
2020/12/27 10:45:45;;;;;;;;;;;5.30;99.90;;;;;;5094882;28;19916;-89
2020/12/27 10:48:33;;;;;;;;;;;5.40;99.90;;;;;;5082726;28;19920;-90
2020/12/27 10:51:02;;;;;;;;;;;5.40;99.90;;;;;;5073283;28;20004;-89
2020/12/27 10:53:31;;;;;;;;;;;5.40;99.90;;;;;;5058530;28;19958;-89
2020/12/27 10:56:03;;;;;;;;;;;5.40;99.90;;;;;;5081415;28;19914;-90
2020/12/27 10:58:32;;;;;;;;;;;5.40;99.90;;;;;;5082807;28;19914;-89
2020/12/27 11:01:02;;;;;;;;;;;5.50;99.90;;;;;;5079384;28;19908;-91
2020/12/27 11:03:33;;;;;;;;;;;5.40;99.90;;;;;;5020145;28;19921;-90
2020/12/27 11:05:59;;;;;;;;;;;5.40;99.90;;;;;;5020114;28;19924;-91
2020/12/27 11:08:33;;;;;;;;;;;5.40;99.90;;;;;;5030670;28;19914;-89
2020/12/27 11:11:09;;;;;;;;;;;5.40;99.90;;;;;;5025539;28;20067;-89
2020/12/27 11:13:43;;;;;;;;;;;5.40;99.90;;;;;;5053057;28;19921;-87
2020/12/27 11:16:39;;;;;;;;;;;5.50;99.90;;;;;;5055636;28;19909;-89
2020/12/27 11:19:15;;;;;;;;;;;5.50;99.90;;;;;;5055922;28;19931;-89
2020/12/27 11:22:10;;;;;;;;;;;5.50;99.90;;;;;;5046198;28;19912;-91
2020/12/27 11:24:36;;;;;;;;;;;5.50;99.90;;;;;;5054944;28;19917;-90
2020/12/27 11:27:07;;;;;;;;;;;5.50;99.90;;;;;;5038981;28;20389;-90
2020/12/27 11:29:48;;;;;;;;;;;5.50;99.90;;;;;;5074164;28;20288;-89
2020/12/27 11:32:16;;;;;;;;;;;5.50;99.90;;;;;;5053408;28;19913;-89
2020/12/27 11:34:43;;;;;;;;;;;5.50;99.90;;;;;;5058893;28;20001;-90
2020/12/27 11:37:14;;;;;;;;;;;5.50;99.90;;;;;;5058680;28;19954;-88
2020/12/27 11:40:03;;;;;;;;;;;5.50;99.90;;;;;;5074251;28;19908;-90
2020/12/27 11:42:28;;;;;;;;;;;5.50;99.90;;;;;;5058619;28;19931;-89
2020/12/27 11:44:57;;;;;;;;;;;5.60;99.90;;;;;;5057412;28;19917;-89
2020/12/27 11:47:26;;;;;;;;;;;5.60;99.90;;;;;;5040091;28;19909;-90
2020/12/27 11:50:03;;;;;;;;;;;5.60;99.90;;;;;;5039326;28;20443;-90
2020/12/27 11:52:35;;;;;;;;;;;5.60;99.90;;;;;;5055637;28;19909;-91
2020/12/27 11:55:09;;;;;;;;;;;5.70;99.90;;;;;;5059110;28;19935;-87
2020/12/27 11:57:38;;;;;;;;;;;5.70;99.90;;;;;;5034597;28;19940;-87
2020/12/27 12:00:07;;;;;;;;;;;5.70;99.90;;;;;;5069785;27;20372;-88
2020/12/27 12:02:32;;;;;;;;;;;5.80;99.90;;;;;;5108954;27;20337;-88
2020/12/27 12:05:08;;;;;;;;;;;5.80;99.90;;;;;;5099992;28;19920;-87
2020/12/27 12:07:49;;;;;;;;;;;;;;;;;;;;;
2020/12/27 12:10:18;;;;;;;;;;;5.80;99.90;;;;;;5082284;28;19907;-88
2020/12/27 12:12:44;;;;;;;;;;;5.90;99.90;;;;;;5099567;28;19951;-88
2020/12/27 12:15:15;;;;;;;;;;;5.90;99.90;;;;;;5038860;28;19920;-92
2020/12/27 12:17:42;;;;;;;;;;;5.90;99.90;;;;;;5070479;28;20397;-89
2020/12/27 12:20:42;;;;;;;;;;;5.90;99.90;;;;;;5055190;28;20427;-88
2020/12/27 12:22:59;;;;;;;;;;;6.00;99.90;;;;;;5069113;28;19909;-88
2020/12/27 12:25:25;;;;;;;;;;;6.00;99.90;;;;;;5038053;28;20325;-88
2020/12/27 12:27:50;;;;;;;;;;;6.00;99.90;;;;;;5034304;28;19909;-87
2020/12/27 12:30:16;;;;;;;;;;;6.00;99.90;;;;;;5032250;28;19992;-87
2020/12/27 12:32:49;;;;;;;;;;;6.00;99.90;;;;;;5036831;28;19909;-88
2020/12/27 12:35:14;;;;;;;;;;;6.00;99.90;;;;;;5034683;28;19913;-87
2020/12/27 12:37:40;;;;;;;;;;;6.10;99.90;;;;;;5034243;28;19909;-89
2020/12/27 12:40:06;;;;;;;;;;;6.00;99.90;;;;;;5036798;28;19915;-88
2020/12/27 12:42:38;;;;;;;;;;;6.10;99.90;;;;;;5037504;28;20011;-90
2020/12/27 12:45:07;;;;;;;;;;;6.10;99.90;;;;;;5056507;28;20016;-88
2020/12/27 12:47:34;;;;;;;;;;;6.10;99.90;;;;;;5097969;28;19912;-88
2020/12/27 12:50:06;;;;;;;;;;;6.10;99.90;;;;;;5116191;28;19907;-88
2020/12/27 12:52:38;;;;;;;;;;;6.10;99.90;;;;;;5116915;28;19908;-89
2020/12/27 12:55:09;;;;;;;;;;;6.20;99.90;;;;;;5120636;27;19912;-88
2020/12/27 12:57:35;;;;;;;;;;;6.20;99.90;;;;;;5098744;28;19946;-89
2020/12/27 13:00:07;;;;;;;;;;;6.20;99.90;;;;;;5109352;27;19912;-87
2020/12/27 13:02:34;;;;;;;;;;;6.20;99.90;;;;;;5114272;28;20438;-87
2020/12/27 13:05:12;;;;;;;;;;;6.20;99.90;;;;;;5111184;28;19958;-87
2020/12/27 13:07:41;;;;;;;;;;;6.20;99.90;;;;;;5114361;28;19908;-89
2020/12/27 13:10:13;;;;;;;;;;;6.20;99.90;;;;;;5114940;28;20332;-88
2020/12/27 13:12:39;;;;;;;;;;;6.20;99.90;;;;;;5115037;28;19918;-88
2020/12/27 13:15:13;;;;;;;;;;;6.20;99.90;;;;;;5110030;28;20380;-89
2020/12/27 13:17:44;;;;;;;;;;;6.20;99.90;;;;;;5114991;28;19907;-88
2020/12/27 13:20:28;;;;;;;;;;;6.20;99.90;;;;;;5115261;28;19915;-88
2020/12/27 13:23:00;;;;;;;;;;;6.20;99.90;;;;;;5119449;27;19908;-88
2020/12/27 13:25:31;;;;;;;;;;;6.20;99.90;;;;;;5111064;28;19919;-88
2020/12/27 13:28:03;;;;;;;;;;;6.30;99.90;;;;;;5114672;28;19994;-88
2020/12/27 13:30:34;;;;;;;;;;;6.30;99.90;;;;;;5114280;28;20283;-89
2020/12/27 13:33:10;;;;;;;;;;;6.40;99.90;;;;;;5115610;28;20031;-88
2020/12/27 13:35:39;;;;;;;;;;;6.40;99.90;;;;;;5114697;28;19957;-90
2020/12/27 13:38:08;;;;;;;;;;;6.40;99.90;;;;;;5112024;28;19915;-90
2020/12/27 13:40:37;;;;;;;;;;;6.40;99.90;;;;;;5116259;28;19915;-90
2020/12/27 13:43:08;;;;;;;;;;;6.50;99.90;;;;;;5110161;28;19958;-91
2020/12/27 13:45:40;;;;;;;;;;;6.50;99.90;;;;;;5119276;28;19962;-88
2020/12/27 13:48:09;;;;;;;;;;;6.50;99.90;;;;;;5129924;28;19947;-88
2020/12/27 13:50:45;;;;;;;;;;;6.50;99.90;;;;;;5134704;28;19912;-89
2020/12/27 13:53:16;;;;;;;;;;;6.50;99.90;;;;;;5135415;28;19907;-88
2020/12/27 13:55:47;;;;;;;;;;;6.50;99.90;;;;;;5131572;28;19912;-88
2020/12/27 13:58:13;;;;;;;;;;;6.40;99.90;;;;;;5135390;28;19929;-89
2020/12/27 14:00:41;;;;;;;;;;;6.40;99.90;;;;;;5135513;28;20423;-88
2020/12/27 14:03:12;;;;;;;;;;;6.50;99.90;;;;;;5131065;28;19919;-87
2020/12/27 14:05:41;;;;;;;;;;;6.50;99.90;;;;;;5134922;28;19919;-87
2020/12/27 14:08:06;;;;;;;;;;;6.50;99.90;;;;;;5072832;28;19913;-89
2020/12/27 14:10:41;;;;;;;;;;;6.50;99.90;;;;;;5053490;28;19916;-89
2020/12/27 14:13:09;;;;;;;;;;;6.50;99.90;;;;;;5056451;28;19908;-89
2020/12/27 14:15:38;;;;;;;;;;;6.40;99.90;;;;;;5050155;28;20117;-89
2020/12/27 14:18:27;;;;;;;;;;;6.40;99.90;;;;;;5071754;28;19959;-89
2020/12/27 14:20:57;;;;;;;;;;;6.50;99.90;;;;;;5055502;28;19909;-89
2020/12/27 14:23:22;;;;;;;;;;;6.50;99.90;;;;;;5055882;28;19908;-89
2020/12/27 14:25:53;;;;;;;;;;;6.50;99.90;;;;;;5055737;28;19924;-89
2020/12/27 14:28:24;;;;;;;;;;;6.50;99.90;;;;;;5055769;28;19913;-88
2020/12/27 14:30:53;;;;;;;;;;;6.50;99.90;;;;;;5050749;28;19915;-89
2020/12/27 14:33:51;;;;;;;;;;;6.50;99.90;;;;;;5071780;28;20372;-86
2020/12/27 14:36:19;;;;;;;;;;;6.50;99.90;;;;;;5056856;28;19931;-87
2020/12/27 14:38:51;;;;;;;;;;;6.40;99.90;;;;;;5093223;28;19953;-87
2020/12/27 14:41:17;;;;;;;;;;;6.40;99.90;;;;;;5116919;28;19908;-87
2020/12/27 14:43:48;;;;;;;;;;;6.40;99.90;;;;;;5116364;28;19951;-88
2020/12/27 14:46:14;;;;;;;;;;;6.40;99.90;;;;;;5117425;28;19908;-88
2020/12/27 14:48:44;;;;;;;;;;;6.30;99.90;;;;;;5114383;28;19935;-89
2020/12/27 14:51:10;;;;;;;;;;;6.20;99.90;;;;;;5116382;28;19912;-88
2020/12/27 14:53:39;;;;;;;;;;;6.20;99.90;;;;;;5118060;28;20321;-87
2020/12/27 14:56:06;;;;;;;;;;;6.10;99.90;;;;;;5114067;28;19908;-88
2020/12/27 14:58:43;;;;;;;;;;;6.00;99.90;;;;;;5118008;28;19915;-88
2020/12/27 15:01:09;;;;;;;;;;;5.90;99.90;;;;;;5117108;28;19908;-87
2020/12/27 15:03:38;;;;;;;;;;;5.90;99.90;;;;;;5136714;27;19920;-87
2020/12/27 15:06:04;;;;;;;;;;;5.80;99.90;;;;;;5120717;27;19911;-88